Time;durP1;ratioP1;P1;durP2;ratioP2;P2;SDS_P1;SDS_P2;PMS_P1;PMS_P2;Temp;Humidity;BMP_temperature;BMP_pressure;BME280_temperature;BME280_humidity;BME280_pressure;Samples;Min_cycle;Max_cycle;Signal;HPM_P1;HPM_P2
2022/01/27 00:07:39;;;;;;;;;;;;;;;-0.48;97.59;101398.75;5098250;28;19935;-70
2022/01/27 00:12:36;;;;;;;;;;;;;;;-0.52;97.79;101397.09;5102030;28;20417;-70
2022/01/27 00:15:13;;;;;;;;;;;;;;;-0.53;98.11;101395.38;5100305;27;20006;-70
2022/01/27 00:17:44;;;;;;;;;;;;;;;-0.54;98.10;101395.41;5097565;28;19912;-70
2022/01/27 00:20:09;;;;;;;;;;;;;;;-0.56;98.19;101392.81;5096474;28;19912;-65
2022/01/27 00:22:34;;;;;;;;;;;;;;;-0.58;98.31;101389.34;5095469;28;20296;-65
2022/01/27 00:25:02;;;;;;;;;;;;;;;-0.58;98.30;101393.75;5096797;28;20363;-66
2022/01/27 00:27:28;;;;;;;;;;;;;;;-0.61;98.49;101386.78;5091206;28;19956;-65
2022/01/27 00:29:53;;;;;;;;;;;;;;;-0.60;99.04;101393.81;5076929;28;19912;-66
2022/01/27 00:32:19;;;;;;;;;;;;;;;-0.62;99.05;101392.97;5074513;28;19912;-66
2022/01/27 00:34:44;;;;;;;;;;;;;;;-0.65;99.21;101389.53;5097770;28;19915;-66
2022/01/27 00:37:09;;;;;;;;;;;;;;;-0.67;99.63;101384.28;5094524;28;19927;-66
2022/01/27 00:39:34;;;;;;;;;;;;;;;-0.69;99.73;101386.13;5097238;28;20395;-65
2022/01/27 00:42:00;;;;;;;;;;;;;;;-0.67;99.85;101386.09;5094035;28;19954;-66
2022/01/27 00:44:25;;;;;;;;;;;;;;;-0.70;100.00;101389.69;5089750;28;19912;-66
2022/01/27 00:46:50;;;;;;;;;;;;;;;-0.72;100.00;101386.19;5094798;28;19916;-66
2022/01/27 00:49:16;;;;;;;;;;;;;;;-0.69;100.00;101401.94;5090816;28;19923;-66
2022/01/27 00:51:45;;;;;;;;;;;;;;;-0.71;100.00;101401.09;5085052;28;19920;-66
2022/01/27 00:54:23;;;;;;;;;;;;;;;-0.74;100.00;101406.44;5096370;28;19916;-70
2022/01/27 00:56:58;;;;;;;;;;;;;;;-0.69;100.00;101412.47;5096815;28;19916;-70
2022/01/27 01:02:02;;;;;;;;;;;;;;;-0.69;100.00;101411.59;5096435;28;20036;-70
2022/01/27 01:04:32;;;;;;;;;;;;;;;-0.71;100.00;101408.16;5100478;28;20597;-70
2022/01/27 01:06:58;;;;;;;;;;;;;;;-0.69;100.00;101417.72;5099046;28;19926;-65
2022/01/27 01:10:13;;;;;;;;;;;;;;;-0.67;100.00;101417.69;5088360;28;19916;-66
2022/01/27 01:20:01;;;;;;;;;;;;;;;-0.54;100.00;101403.31;5100677;28;20406;-70
2022/01/27 01:30:58;;;;;;;;;;;;;;;-0.46;100.00;101383.75;5095100;28;19973;-70
2022/01/27 01:33:31;;;;;;;;;;;;;;;-0.46;100.00;101378.50;5098017;28;20295;-70
2022/01/27 01:36:05;;;;;;;;;;;;;;;-0.46;100.00;101382.88;5102933;28;19919;-70
2022/01/27 01:38:30;;;;;;;;;;;;;;;-0.45;100.00;101380.22;5087427;28;19916;-70
2022/01/27 01:40:56;;;;;;;;;;;;;;;-0.46;100.00;101382.88;5097422;27;19926;-70
2022/01/27 01:43:22;;;;;;;;;;;;;;;-0.49;100.00;101361.88;5086033;28;19916;-70
2022/01/27 01:45:47;;;;;;;;;;;;;;;-0.47;100.00;101365.38;5084343;28;20332;-70
2022/01/27 01:48:14;;;;;;;;;;;;;;;-0.47;100.00;101365.38;5099004;28;19918;-70
2022/01/27 01:50:40;;;;;;;;;;;;;;;-0.49;100.00;101369.78;5101566;28;19915;-70
2022/01/27 01:53:05;;;;;;;;;;;;;;;-0.51;100.00;101359.28;5104933;27;19971;-66
2022/01/27 01:55:31;;;;;;;;;;;;;;;-0.52;100.00;101369.88;5099788;28;19912;-66
2022/01/27 01:57:57;;;;;;;;;;;;;;;-0.52;100.00;101362.84;5080051;28;19924;-66
2022/01/27 02:00:23;;;;;;;;;;;;;;;-0.51;100.00;101369.84;5098212;28;19930;-66
2022/01/27 02:02:48;;;;;;;;;;;;;;;-0.54;100.00;101358.53;5075837;28;19931;-66
2022/01/27 02:05:13;;;;;;;;;;;;;;;-0.55;100.00;101355.00;5096960;28;19911;-70
2022/01/27 02:08:12;;;;;;;;;;;;;;;-0.56;100.00;101355.94;5098656;28;19957;-70
2022/01/27 02:19:05;;;;;;;;;;;;;;;-0.59;100.00;101355.13;5090035;28;20363;-66
2022/01/27 02:21:31;;;;;;;;;;;;;;;-0.60;100.00;101358.69;5079644;28;19920;-65
2022/01/27 02:23:56;;;;;;;;;;;;;;;-0.59;100.00;101365.66;5097401;28;19919;-66
2022/01/27 02:26:23;;;;;;;;;;;;;;;-0.64;100.00;101362.31;5095050;28;20431;-66
2022/01/27 02:28:48;;;;;;;;;;;;;;;-0.65;100.00;101369.34;5095930;28;19947;-66
2022/01/27 02:31:14;;;;;;;;;;;;;;;-0.64;100.00;101378.13;5099149;28;19943;-66
2022/01/27 02:33:39;;;;;;;;;;;;;;;-0.60;100.00;101385.91;5090071;28;20356;-66
2022/01/27 02:36:04;;;;;;;;;;;;;;;-0.64;100.00;101381.59;5090918;28;19912;-66
2022/01/27 02:38:30;;;;;;;;;;;;;;;-0.64;100.00;101370.22;5094394;28;19912;-66
2022/01/27 02:40:59;;;;;;;;;;;;;;;-0.65;100.00;101373.72;5092727;28;19940;-65
2022/01/27 02:43:24;;;;;;;;;;;;;;;-0.65;100.00;101373.72;5088387;28;19916;-66
2022/01/27 02:45:52;;;;;;;;;;;;;;;-0.64;100.00;101372.84;5092405;28;19919;-66
2022/01/27 02:48:18;;;;;;;;;;;;;;;-0.65;100.00;101376.34;5098120;28;19919;-66
2022/01/27 02:50:43;;;;;;;;;;;;;;;-0.68;100.00;101374.69;5085846;28;19916;-66
2022/01/27 02:53:09;;;;;;;;;;;;;;;-0.66;100.00;101367.63;5093516;28;19961;-65
2022/01/27 02:55:34;;;;;;;;;;;;;;;-0.69;100.00;101364.19;5076115;28;20253;-65
2022/01/27 02:58:00;;;;;;;;;;;;;;;-0.67;100.00;101370.28;5087220;28;19916;-66
2022/01/27 03:00:25;;;;;;;;;;;;;;;-0.67;100.00;101360.59;5090755;28;19950;-66
2022/01/27 03:02:50;;;;;;;;;;;;;;;-0.66;100.00;101356.19;5094735;28;19920;-66
2022/01/27 03:05:16;;;;;;;;;;;;;;;-0.69;100.00;101354.53;5093432;28;20010;-66
2022/01/27 03:07:43;;;;;;;;;;;;;;;-0.69;100.00;101362.41;5088886;28;20455;-66
2022/01/27 03:10:08;;;;;;;;;;;;;;;-0.67;100.00;101349.22;5090764;28;19990;-66
2022/01/27 03:12:37;;;;;;;;;;;;;;;-0.57;100.00;101350.69;5094558;28;20307;-66
2022/01/27 03:15:03;;;;;;;;;;;;;;;-0.59;100.00;101345.47;5093631;28;19911;-66
2022/01/27 03:17:28;;;;;;;;;;;;;;;-0.60;100.00;101348.16;5090621;28;19969;-70
2022/01/27 03:19:54;;;;;;;;;;;;;;;-0.59;100.00;101350.75;5097119;28;19976;-70
2022/01/27 03:22:20;;;;;;;;;;;;;;;-0.57;100.00;101353.34;5089202;28;19915;-70
2022/01/27 03:24:45;;;;;;;;;;;;;;;-0.61;100.00;101346.44;5087475;28;19918;-70
2022/01/27 03:27:18;;;;;;;;;;;;;;;-0.60;100.00;101354.28;5098600;28;19954;-70
2022/01/27 03:29:43;;;;;;;;;;;;;;;-0.62;100.00;101340.28;5094416;28;19916;-70
2022/01/27 03:32:08;;;;;;;;;;;;;;;-0.62;100.00;101335.00;5095852;28;20321;-70
2022/01/27 03:34:34;;;;;;;;;;;;;;;-0.60;100.00;101346.38;5070514;28;19926;-70
2022/01/27 03:36:59;;;;;;;;;;;;;;;-0.62;100.00;101356.09;5100760;28;19998;-70
2022/01/27 03:39:26;;;;;;;;;;;;;;;-0.64;100.00;101357.88;5089349;28;19919;-70
2022/01/27 03:41:53;;;;;;;;;;;;;;;-0.65;100.00;101352.66;5087177;28;19920;-70
2022/01/27 03:44:20;;;;;;;;;;;;;;;-0.64;100.00;101362.31;5092736;28;20022;-70
2022/01/27 03:46:45;;;;;;;;;;;;;;;-0.67;100.00;101362.38;5093802;28;19989;-70
2022/01/27 03:49:10;;;;;;;;;;;;;;;-0.72;100.00;101351.97;5097591;28;19912;-70
2022/01/27 03:51:36;;;;;;;;;;;;;;;-0.73;100.00;101354.63;5100956;28;21392;-69
2022/01/27 03:54:03;;;;;;;;;;;;;;;-0.71;100.00;101355.47;5094650;28;19927;-70
2022/01/27 03:56:28;;;;;;;;;;;;;;;-0.69;100.00;101361.53;5093631;28;19920;-70
2022/01/27 03:58:53;;;;;;;;;;;;;;;-0.69;100.00;101354.53;5100715;27;20006;-70
2022/01/27 04:01:19;;;;;;;;;;;;;;;-0.68;100.00;101360.66;5075178;28;19919;-70
2022/01/27 04:03:44;;;;;;;;;;;;;;;-0.65;100.00;101350.03;5098204;28;20013;-70
2022/01/27 04:06:10;;;;;;;;;;;;;;;-0.65;100.00;101352.66;5101867;28;19989;-70
2022/01/27 04:08:37;;;;;;;;;;;;;;;-0.63;100.00;101358.75;5101746;28;19912;-70
2022/01/27 04:11:06;;;;;;;;;;;;;;;-0.61;100.00;101365.72;5098044;28;19915;-70
2022/01/27 04:13:32;;;;;;;;;;;;;;;-0.58;100.00;101349.81;5100782;28;19918;-70
2022/01/27 04:15:57;;;;;;;;;;;;;;;-0.57;100.00;101356.84;5083134;28;19920;-70
2022/01/27 04:18:22;;;;;;;;;;;;;;;-0.54;100.00;101354.09;5084964;28;19972;-70
2022/01/27 04:20:48;;;;;;;;;;;;;;;-0.50;100.00;101345.25;5090833;28;19920;-70
2022/01/27 04:23:13;;;;;;;;;;;;;;;-0.42;100.00;101356.41;5100906;28;19923;-70
2022/01/27 04:25:39;;;;;;;;;;;;;;;-0.39;100.00;101343.16;5091798;28;19930;-70
2022/01/27 04:28:08;;;;;;;;;;;;;;;-0.37;100.00;101344.00;5097425;27;19919;-70
2022/01/27 04:30:33;;;;;;;;;;;;;;;-0.31;100.00;101340.34;5087349;28;19919;-70
2022/01/27 04:33:01;;;;;;;;;;;;;;;-0.26;100.00;101351.59;5101451;28;19911;-70
2022/01/27 04:35:29;;;;;;;;;;;;;;;-0.18;100.00;101362.81;5090311;28;19959;-70
2022/01/27 04:40:29;;;;;;;;;;;;;;;-0.06;100.00;101357.22;5097465;28;19927;-66
2022/01/27 04:45:28;;;;;;;;;;;;;;;0.04;100.00;101356.03;5093568;28;20548;-65
2022/01/27 04:48:03;;;;;;;;;;;;;;;0.08;100.00;101355.03;5094960;28;20356;-66
2022/01/27 04:50:28;;;;;;;;;;;;;;;0.15;100.00;101353.94;5087566;28;19915;-66
2022/01/27 04:52:56;;;;;;;;;;;;;;;0.20;100.00;101351.19;5085562;28;19983;-66
2022/01/27 04:55:23;;;;;;;;;;;;;;;0.25;100.00;101344.00;5093932;28;20080;-66
2022/01/27 04:57:55;;;;;;;;;;;;;;;0.27;100.00;101336.88;5091547;28;19919;-65
2022/01/27 05:00:20;;;;;;;;;;;;;;;0.35;100.00;101335.75;5095949;27;19912;-66
2022/01/27 05:02:54;;;;;;;;;;;;;;;0.45;100.00;101331.91;5096074;28;19919;-66
2022/01/27 05:05:21;;;;;;;;;;;;;;;0.56;100.00;101324.56;5099373;27;19916;-65
2022/01/27 05:07:54;;;;;;;;;;;;;;;0.57;100.00;101318.34;5094092;27;19981;-65
2022/01/27 05:10:22;;;;;;;;;;;;;;;0.60;100.00;101322.66;5078513;28;20619;-66
2022/01/27 05:12:48;;;;;;;;;;;;;;;0.64;100.00;101330.44;5094150;28;19922;-65
2022/01/27 05:15:14;;;;;;;;;;;;;;;0.61;100.00;101325.25;5083386;28;19915;-65
2022/01/27 05:17:39;;;;;;;;;;;;;;;0.65;100.00;101329.56;5092729;28;19912;-66
2022/01/27 05:20:05;;;;;;;;;;;;;;;0.73;100.00;101327.53;5086051;28;19912;-67
2022/01/27 05:22:34;;;;;;;;;;;;;;;0.73;100.00;101329.28;5089557;28;20021;-66
2022/01/27 05:24:59;;;;;;;;;;;;;;;0.74;100.00;101337.16;5084305;28;19941;-66
2022/01/27 05:27:24;;;;;;;;;;;;;;;0.82;99.52;101329.88;5094971;27;19911;-66
2022/01/27 05:29:52;;;;;;;;;;;;;;;0.92;99.30;101333.06;5095023;28;20003;-66
2022/01/27 05:32:17;;;;;;;;;;;;;;;0.95;98.61;101328.56;5091482;28;19969;-66
2022/01/27 05:34:42;;;;;;;;;;;;;;;0.98;98.47;101325.81;5095996;28;19912;-66
2022/01/27 05:37:08;;;;;;;;;;;;;;;0.99;97.90;101327.53;5096045;27;20030;-67
2022/01/27 05:39:33;;;;;;;;;;;;;;;1.00;98.55;101317.84;5092573;28;19919;-66
2022/01/27 05:41:58;;;;;;;;;;;;;;;1.06;97.87;101333.50;5091138;28;19912;-70
2022/01/27 05:44:24;;;;;;;;;;;;;;;1.02;98.37;101322.16;5089499;28;19916;-70
2022/01/27 05:46:49;;;;;;;;;;;;;;;1.02;98.28;101322.16;5075071;27;19975;-71
2022/01/27 05:49:14;;;;;;;;;;;;;;;1.06;98.41;101323.78;5088943;28;20246;-70
2022/01/27 05:51:39;;;;;;;;;;;;;;;1.06;98.47;101315.00;5094395;28;19923;-66
2022/01/27 05:54:05;;;;;;;;;;;;;;;1.07;98.74;101311.44;5069439;28;20006;-66
2022/01/27 05:56:30;;;;;;;;;;;;;;;1.07;98.78;101309.69;5090492;27;19915;-71
2022/01/27 05:58:55;;;;;;;;;;;;;;;1.10;99.04;101301.63;5082479;28;19958;-71
2022/01/27 06:01:21;;;;;;;;;;;;;;;1.17;98.84;101310.22;5096907;27;20348;-71
2022/01/27 06:03:46;;;;;;;;;;;;;;;1.18;98.55;101304.00;5096670;28;19931;-71
2022/01/27 06:06:11;;;;;;;;;;;;;;;1.17;98.75;101295.25;5086022;28;19919;-71
2022/01/27 06:08:36;;;;;;;;;;;;;;;1.19;98.72;101301.31;5086481;28;20294;-71
2022/01/27 06:11:02;;;;;;;;;;;;;;;1.22;98.46;101314.44;5087918;28;19915;-71
2022/01/27 06:13:27;;;;;;;;;;;;;;;1.26;98.24;101310.75;5091501;28;20259;-72
2022/01/27 06:15:59;;;;;;;;;;;;;;;1.29;98.89;101320.38;5095356;28;19912;-66
2022/01/27 06:18:24;;;;;;;;;;;;;;;1.33;98.75;101322.88;5094879;28;20245;-67
2022/01/27 06:20:49;;;;;;;;;;;;;;;1.37;98.69;101323.63;5078720;28;19927;-67
2022/01/27 06:23:15;;;;;;;;;;;;;;;1.38;98.67;101325.34;5085684;28;20031;-67
2022/01/27 06:25:40;;;;;;;;;;;;;;;1.37;98.30;101328.91;5085618;28;19927;-66
2022/01/27 06:28:05;;;;;;;;;;;;;;;1.41;98.37;101333.16;5097231;28;20368;-66
2022/01/27 06:30:34;;;;;;;;;;;;;;;1.40;98.13;101319.09;5082976;28;19927;-66
2022/01/27 06:33:04;;;;;;;;;;;;;;;1.43;98.75;101313.72;5081086;28;19915;-66
2022/01/27 06:35:29;;;;;;;;;;;;;;;1.46;98.59;101316.25;5094344;28;19976;-66
2022/01/27 06:37:54;;;;;;;;;;;;;;;1.48;98.93;101306.47;5074484;28;19912;-66
2022/01/27 06:40:20;;;;;;;;;;;;;;;1.50;98.60;101302.00;5097404;28;20883;-66
2022/01/27 06:42:45;;;;;;;;;;;;;;;1.56;98.39;101308.84;5079497;28;20014;-66
2022/01/27 06:45:11;;;;;;;;;;;;;;;1.53;98.94;101293.97;5077850;28;20049;-66
2022/01/27 06:47:36;;;;;;;;;;;;;;;1.56;98.94;101293.84;5096073;28;19915;-66
2022/01/27 06:50:02;;;;;;;;;;;;;;;1.60;98.79;101308.69;5095353;28;19916;-66
2022/01/27 06:52:28;;;;;;;;;;;;;;;1.64;98.74;101317.34;5094270;28;20317;-65
2022/01/27 06:54:55;;;;;;;;;;;;;;;1.64;98.08;101310.28;5094899;28;19971;-67
2022/01/27 06:57:20;;;;;;;;;;;;;;;1.67;98.38;101314.59;5073081;28;19931;-66
2022/01/27 06:59:46;;;;;;;;;;;;;;;1.61;98.16;101291.06;5074210;28;19912;-66
2022/01/27 07:02:11;;;;;;;;;;;;;;;1.72;98.04;101304.75;5078828;28;19927;-66
2022/01/27 07:04:36;;;;;;;;;;;;;;;1.73;97.73;101315.25;5093940;28;19923;-66
2022/01/27 07:07:02;;;;;;;;;;;;;;;1.74;98.07;101314.34;5080379;28;19919;-66
2022/01/27 07:09:27;;;;;;;;;;;;;;;1.76;97.96;101301.06;5102184;28;19968;-67
2022/01/27 07:11:53;;;;;;;;;;;;;;;1.82;98.06;101308.78;5085368;28;20147;-67
2022/01/27 07:14:18;;;;;;;;;;;;;;;1.83;97.83;101308.72;5092581;28;19916;-67
2022/01/27 07:16:44;;;;;;;;;;;;;;;1.85;97.88;101304.25;5094261;28;20372;-67
2022/01/27 07:19:09;;;;;;;;;;;;;;;1.85;97.48;101312.19;5094687;28;19919;-67
2022/01/27 07:21:35;;;;;;;;;;;;;;;1.90;97.90;101312.88;5096694;28;19924;-65
2022/01/27 07:24:00;;;;;;;;;;;;;;;1.93;97.82;101319.81;5085054;28;19954;-65
2022/01/27 07:26:26;;;;;;;;;;;;;;;1.96;97.50;101317.06;5102569;28;19918;-66
2022/01/27 07:28:55;;;;;;;;;;;;;;;2.00;97.00;101314.25;5089981;28;19919;-66
2022/01/27 07:31:20;;;;;;;;;;;;;;;2.04;97.22;101323.78;5082021;28;19943;-66
2022/01/27 07:33:47;;;;;;;;;;;;;;;2.06;97.13;101321.97;5100746;28;19954;-66
2022/01/27 07:36:13;;;;;;;;;;;;;;;2.07;96.51;101315.75;5087356;28;20010;-66
2022/01/27 07:38:38;;;;;;;;;;;;;;;2.11;96.96;101314.72;5103689;27;20002;-66
2022/01/27 07:41:03;;;;;;;;;;;;;;;2.13;97.08;101302.28;5099460;28;20007;-66
2022/01/27 07:43:29;;;;;;;;;;;;;;;2.17;96.56;101309.19;5095570;28;19923;-66
2022/01/27 07:45:54;;;;;;;;;;;;;;;2.23;96.61;101314.25;5085517;28;19912;-66
2022/01/27 07:48:19;;;;;;;;;;;;;;;2.31;95.92;101306.03;5086322;28;20360;-66
2022/01/27 07:50:45;;;;;;;;;;;;;;;2.29;95.92;101306.06;5097026;28;19919;-66
2022/01/27 07:53:10;;;;;;;;;;;;;;;2.32;96.10;101305.97;5095727;28;19923;-66
2022/01/27 07:55:35;;;;;;;;;;;;;;;2.34;95.86;101305.91;5082990;28;19969;-66
2022/01/27 07:58:01;;;;;;;;;;;;;;;2.36;96.09;101309.38;5103312;28;19915;-67
2022/01/27 08:00:26;;;;;;;;;;;;;;;2.38;95.93;101316.31;5081814;28;20087;-66
2022/01/27 08:02:51;;;;;;;;;;;;;;;2.39;96.12;101301.31;5093147;27;21636;-66
2022/01/27 08:05:17;;;;;;;;;;;;;;;2.40;95.64;101305.66;5084209;28;19915;-67
2022/01/27 08:07:42;;;;;;;;;;;;;;;2.41;95.92;101296.81;5102202;28;20066;-66
2022/01/27 08:10:08;;;;;;;;;;;;;;;2.48;95.43;101306.22;5102281;28;20702;-66
2022/01/27 08:12:38;;;;;;;;;;;;;;;2.47;95.59;101300.97;5096457;28;19923;-66
2022/01/27 08:15:03;;;;;;;;;;;;;;;2.51;95.42;101302.63;5098275;28;20007;-67
2022/01/27 08:17:30;;;;;;;;;;;;;;;2.56;94.38;101298.84;5098002;28;20006;-67
2022/01/27 08:19:55;;;;;;;;;;;;;;;2.63;94.29;101304.75;5102350;27;19923;-67
2022/01/27 08:22:20;;;;;;;;;;;;;;;2.58;94.45;101293.50;5085557;28;19911;-66
2022/01/27 08:24:46;;;;;;;;;;;;;;;2.57;94.72;101289.97;5096899;28;20355;-67
2022/01/27 08:27:15;;;;;;;;;;;;;;;2.62;94.35;101298.63;5097037;28;19962;-67
2022/01/27 08:29:45;;;;;;;;;;;;;;;2.61;93.98;101301.31;5084092;28;19965;-66
2022/01/27 08:32:16;;;;;;;;;;;;;;;2.66;93.82;101307.28;5098759;28;19957;-66
2022/01/27 08:34:43;;;;;;;;;;;;;;;2.73;92.32;101309.63;5085472;28;20269;-66
2022/01/27 08:37:10;;;;;;;;;;;;;;;2.75;92.19;101313.09;5100559;28;19927;-67
2022/01/27 08:39:36;;;;;;;;;;;;;;;2.77;91.95;101313.88;5082200;28;20271;-67
2022/01/27 08:42:01;;;;;;;;;;;;;;;2.80;92.11;101315.56;5083733;28;19912;-71
2022/01/27 08:44:27;;;;;;;;;;;;;;;2.85;91.66;101316.22;5100674;28;20292;-71
2022/01/27 08:46:52;;;;;;;;;;;;;;;2.92;90.87;101305.31;5086852;28;19911;-71
2022/01/27 08:49:19;;;;;;;;;;;;;;;2.99;89.85;101308.56;5083018;28;19911;-71
2022/01/27 08:51:45;;;;;;;;;;;;;;;2.96;90.22;101308.72;5083244;28;20010;-70
2022/01/27 08:54:10;;;;;;;;;;;;;;;2.93;90.34;101306.19;5098854;27;20006;-71
2022/01/27 08:56:35;;;;;;;;;;;;;;;2.95;90.53;101304.31;5102710;28;20384;-71
2022/01/27 08:59:01;;;;;;;;;;;;;;;2.97;90.53;101318.38;5083042;28;19923;-70
2022/01/27 09:01:27;;;;;;;;;;;;;;;2.93;90.25;101307.03;5103065;28;19919;-71
2022/01/27 09:03:53;;;;;;;;;;;;;;;2.96;90.04;101312.22;5088927;27;20006;-71
2022/01/27 09:06:21;;;;;;;;;;;;;;;2.96;89.50;101301.63;5100440;28;19915;-70
2022/01/27 09:08:47;;;;;;;;;;;;;;;2.98;89.21;101302.41;5104084;27;20311;-70
2022/01/27 09:11:13;;;;;;;;;;;;;;;3.07;87.96;101304.69;5080649;28;19912;-70
2022/01/27 09:13:39;;;;;;;;;;;;;;;3.08;88.16;101301.13;5099997;28;20022;-70
2022/01/27 09:16:05;;;;;;;;;;;;;;;3.16;87.22;101300.81;5099134;28;19919;-70
2022/01/27 09:18:30;;;;;;;;;;;;;;;3.15;87.29;101310.53;5100384;28;19965;-70
2022/01/27 09:20:58;;;;;;;;;;;;;;;3.23;86.74;101304.91;5083733;28;20356;-71
2022/01/27 09:23:24;;;;;;;;;;;;;;;3.24;86.93;101307.50;5100669;27;19960;-70
2022/01/27 09:25:50;;;;;;;;;;;;;;;3.26;86.74;101310.94;5080479;28;20326;-70
2022/01/27 09:28:15;;;;;;;;;;;;;;;3.32;86.11;101305.38;5098345;28;20345;-70
2022/01/27 09:30:42;;;;;;;;;;;;;;;3.34;85.85;101295.56;5099563;28;19995;-71
2022/01/27 09:33:07;;;;;;;;;;;;;;;3.42;85.79;101301.41;5105653;28;20315;-70
2022/01/27 09:35:33;;;;;;;;;;;;;;;3.42;86.03;101285.50;5101002;28;19926;-70
2022/01/27 09:37:59;;;;;;;;;;;;;;;3.45;86.19;101295.13;5102126;28;19919;-71
2022/01/27 09:40:25;;;;;;;;;;;;;;;3.62;83.67;101287.28;5099613;27;20527;-71
2022/01/27 09:42:53;;;;;;;;;;;;;;;3.59;84.14;101290.94;5102946;28;19919;-71
2022/01/27 09:45:19;;;;;;;;;;;;;;;3.69;83.05;101286.94;5087395;28;19916;-70
2022/01/27 09:47:53;;;;;;;;;;;;;;;3.75;82.17;101273.44;5106065;28;19919;-70
2022/01/27 09:50:26;;;;;;;;;;;;;;;3.74;82.41;101260.22;5097529;28;19976;-69
2022/01/27 09:52:51;;;;;;;;;;;;;;;3.75;82.66;101269.91;5104707;28;19920;-70
2022/01/27 09:55:17;;;;;;;;;;;;;;;3.89;79.96;101255.06;5107357;28;19977;-70
2022/01/27 09:57:42;;;;;;;;;;;;;;;3.94;79.50;101244.25;5086080;28;19935;-70
2022/01/27 10:00:08;;;;;;;;;;;;;;;4.07;77.10;101250.72;5101288;28;19911;-70
2022/01/27 10:02:33;;;;;;;;;;;;;;;4.06;78.18;101243.66;5099457;28;19953;-70
2022/01/27 10:04:58;;;;;;;;;;;;;;;4.08;78.57;101240.03;5103431;28;19912;-70
2022/01/27 10:07:35;;;;;;;;;;;;;;;4.12;79.49;101238.06;5100678;28;19912;-70
2022/01/27 10:10:06;;;;;;;;;;;;;;;4.33;77.96;101243.22;5087749;28;19912;-70
2022/01/27 10:12:35;;;;;;;;;;;;;;;4.44;76.71;101235.63;5100983;28;19919;-70
2022/01/27 10:15:03;;;;;;;;;;;;;;;4.59;74.95;101224.25;5091543;28;19911;-70
2022/01/27 10:17:30;;;;;;;;;;;;;;;4.74;74.26;101223.50;5100032;28;19915;-70
2022/01/27 10:19:55;;;;;;;;;;;;;;;4.75;75.38;101237.66;5088217;28;19950;-70
2022/01/27 10:22:21;;;;;;;;;;;;;;;4.86;73.91;101237.13;5103580;28;19951;-71
2022/01/27 10:24:58;;;;;;;;;;;;;;;5.03;71.07;101247.78;5102600;28;20602;-71
2022/01/27 10:27:45;;;;;;;;;;;;;;;5.15;68.30;101225.84;5105334;28;19921;-70
2022/01/27 10:32:50;;;;;;;;;;;;;;;5.35;67.04;101223.91;5096308;28;19920;-71
2022/01/27 10:35:19;;;;;;;;;;;;;;;5.36;67.08;101215.00;5087558;28;19912;-71
2022/01/27 10:37:54;;;;;;;;;;;;;;;5.29;67.59;101207.41;5089017;28;19965;-71
2022/01/27 10:40:24;;;;;;;;;;;;;;;5.39;67.49;101198.88;5085533;28;19919;-71
2022/01/27 10:43:01;;;;;;;;;;;;;;;5.44;67.43;101204.81;5099854;28;20380;-70
2022/01/27 10:45:26;;;;;;;;;;;;;;;5.39;67.90;101206.00;5097711;28;19957;-70
2022/01/27 10:47:51;;;;;;;;;;;;;;;5.41;68.09;101217.41;5099736;28;20379;-70
2022/01/27 10:50:17;;;;;;;;;;;;;;;5.65;66.36;101201.03;5099508;28;19927;-71
2022/01/27 10:52:50;;;;;;;;;;;;;;;5.70;65.84;101198.94;5102960;28;22119;-71
2022/01/27 10:55:20;;;;;;;;;;;;;;;5.72;65.56;101196.22;5103076;28;20387;-71
2022/01/27 10:57:50;;;;;;;;;;;;;;;5.66;65.22;101189.44;5098320;28;19920;-66
2022/01/27 11:00:17;;;;;;;;;;;;;;;5.55;66.14;101181.13;5095232;28;19920;-66
2022/01/27 11:03:01;;;;;;;;;;;;;;;5.57;66.31;101181.06;5099664;28;19923;-66
2022/01/27 11:05:30;;;;;;;;;;;;;;;5.61;66.54;101179.97;5086267;28;19919;-71
2022/01/27 11:07:57;;;;;;;;;;;;;;;5.61;66.92;101179.97;5090910;28;19999;-71
2022/01/27 11:10:22;;;;;;;;;;;;;;;5.61;67.54;101174.66;5091105;28;19920;-71
2022/01/27 11:12:49;;;;;;;;;;;;;;;5.84;66.29;101174.28;5100249;28;19918;-71
2022/01/27 11:15:18;;;;;;;;;;;;;;;5.87;66.30;101172.31;5088587;28;19911;-72
2022/01/27 11:17:45;;;;;;;;;;;;;;;5.90;65.87;101153.50;5101631;28;19951;-70
2022/01/27 11:20:32;;;;;;;;;;;;;;;5.97;66.08;101144.22;5102031;28;19969;-70
2022/01/27 11:23:24;;;;;;;;;;;;;;;5.97;66.27;101146.88;5102214;28;19924;-70
2022/01/27 11:25:52;;;;;;;;;;;;;;;6.04;65.41;101134.97;5104017;27;19918;-70
2022/01/27 11:28:19;;;;;;;;;;;;;;;5.94;65.59;101128.41;5097429;28;20303;-69
2022/01/27 11:30:48;;;;;;;;;;;;;;;5.97;65.70;101133.56;5082957;28;20198;-70
2022/01/27 11:33:14;;;;;;;;;;;;;;;5.94;66.16;101122.25;5086945;28;20381;-68
2022/01/27 11:35:39;;;;;;;;;;;;;;;5.98;65.73;101135.31;5084903;28;19923;-67
2022/01/27 11:38:06;;;;;;;;;;;;;;;5.95;65.72;101121.31;5087729;28;19911;-72
2022/01/27 11:40:38;;;;;;;;;;;;;;;6.05;65.22;101130.50;5084661;28;19912;-72
2022/01/27 11:43:10;;;;;;;;;;;;;;;5.92;65.62;101135.66;5100504;28;19951;-72
2022/01/27 11:45:37;;;;;;;;;;;;;;;5.89;65.74;101132.28;5102705;28;19966;-72
2022/01/27 11:48:07;;;;;;;;;;;;;;;5.89;65.06;101126.97;5088319;28;19969;-72
2022/01/27 11:50:50;;;;;;;;;;;;;;;5.99;64.77;101120.19;5099748;28;19919;-72
2022/01/27 11:53:32;;;;;;;;;;;;;;;6.02;64.72;101112.03;5104685;28;20124;-70
2022/01/27 11:55:59;;;;;;;;;;;;;;;5.95;65.51;101106.19;5098717;28;19979;-70
2022/01/27 11:58:25;;;;;;;;;;;;;;;5.99;64.81;101110.41;5103930;28;20340;-70
2022/01/27 12:01:01;;;;;;;;;;;;;;;6.15;64.75;101105.94;5102462;28;20363;-70
2022/01/27 12:03:26;;;;;;;;;;;;;;;6.22;64.58;101111.75;5103583;28;19920;-70
2022/01/27 12:06:10;;;;;;;;;;;;;;;6.25;63.50;101116.91;5106922;28;19911;-70
2022/01/27 12:08:35;;;;;;;;;;;;;;;6.17;63.51;101109.38;5099696;28;19957;-66
2022/01/27 12:11:05;;;;;;;;;;;;;;;6.18;62.61;101100.44;5100817;28;19912;-65
2022/01/27 12:13:37;;;;;;;;;;;;;;;6.11;62.81;101096.41;5099095;28;20291;-70
2022/01/27 12:18:58;;;;;;;;;;;;;;;6.19;63.65;101093.31;5102130;28;19969;-71
2022/01/27 12:21:48;;;;;;;;;;;;;;;6.19;63.69;101078.16;5088683;28;19918;-70
2022/01/27 12:24:14;;;;;;;;;;;;;;;6.12;63.54;101078.59;5098096;28;19923;-70
2022/01/27 12:26:47;;;;;;;;;;;;;;;6.10;64.04;101085.84;5102619;28;19915;-71
2022/01/27 12:29:20;;;;;;;;;;;;;;;6.04;64.84;101071.06;5102356;28;19965;-71
2022/01/27 12:31:45;;;;;;;;;;;;;;;6.02;64.46;101058.78;5077806;28;19915;-70
2022/01/27 12:34:12;;;;;;;;;;;;;;;6.04;64.68;101070.22;5101936;28;20481;-71
2022/01/27 12:36:37;;;;;;;;;;;;;;;6.02;64.98;101056.97;5108093;28;20356;-71
2022/01/27 12:39:02;;;;;;;;;;;;;;;6.07;64.63;101059.38;5101942;27;19912;-71
2022/01/27 12:41:34;;;;;;;;;;;;;;;6.11;64.57;101059.13;5105486;28;19931;-71
2022/01/27 12:44:09;;;;;;;;;;;;;;;6.06;65.01;101053.19;5097942;28;20295;-71
2022/01/27 12:46:35;;;;;;;;;;;;;;;6.08;64.95;101058.41;5096103;28;19926;-67
2022/01/27 12:49:02;;;;;;;;;;;;;;;6.10;64.54;101048.56;5100367;28;20260;-67
2022/01/27 12:51:27;;;;;;;;;;;;;;;6.08;64.78;101051.31;5081163;28;20010;-67
2022/01/27 12:54:02;;;;;;;;;;;;;;;6.12;65.60;101042.19;5095655;28;20598;-67
2022/01/27 12:56:27;;;;;;;;;;;;;;;6.19;65.27;101034.72;5098590;28;20280;-67
2022/01/27 12:58:53;;;;;;;;;;;;;;;6.18;64.88;101032.97;5096942;28;19920;-66
2022/01/27 13:01:19;;;;;;;;;;;;;;;6.27;64.11;101016.47;5098234;28;20008;-67
2022/01/27 13:03:58;;;;;;;;;;;;;;;6.39;63.76;101011.25;5088794;28;19923;-67
2022/01/27 13:06:27;;;;;;;;;;;;;;;6.36;64.23;101011.44;5099707;28;19919;-67
2022/01/27 13:09:08;;;;;;;;;;;;;;;6.32;64.15;101020.56;5095028;27;20344;-66
2022/01/27 13:11:34;;;;;;;;;;;;;;;6.27;64.52;101008.47;5099907;28;19916;-67
2022/01/27 13:14:09;;;;;;;;;;;;;;;6.23;63.91;101007.78;5100608;28;19916;-67
2022/01/27 13:16:42;;;;;;;;;;;;;;;6.26;63.97;100996.09;5092770;28;19920;-67
2022/01/27 13:19:20;;;;;;;;;;;;;;;6.34;63.97;101001.81;5099895;28;20423;-67
2022/01/27 13:21:51;;;;;;;;;;;;;;;6.22;64.66;100995.41;5090424;28;19920;-67
2022/01/27 13:24:18;;;;;;;;;;;;;;;6.23;64.61;100993.63;5087333;28;20038;-67
2022/01/27 13:26:45;;;;;;;;;;;;;;;6.23;64.50;100994.47;5096802;28;19979;-67
2022/01/27 13:29:11;;;;;;;;;;;;;;;6.27;64.28;100988.03;5096832;28;20352;-66